Terminal Aerodrome Forecast
Issued by NWS Tulsa, OK

Home | Current Version | Previous Version | Text Only | Print | Product List | Glossary On
Versions: 1 2 3 4 5 6 7 8 9 10 11 12 13 14 15 16
347
FTUS44 KTSA 271720
TAFFSM
TAF
KFSM 271720Z 2718/2818 33004KT P6SM VCTS SCT035CB BKN050
     FM271900 VRB08KT P6SM VCTS SCT050CB BKN100
     FM280100 08003KT P6SM BKN120
     FM281500 VRB03KT P6SM SCT100 BKN250=

USA.gov is the U.S. government's official web portal to all federal, state and local government web resources and services.